createdAt,value
2017-06-01T00:00:06.366Z,61.6
2017-06-01T00:10:06.366Z,61.6
2017-06-01T00:20:06.379Z,61.6
2017-06-01T00:30:06.361Z,61.6
2017-06-01T00:40:06.357Z,61.6
2017-06-01T00:50:06.366Z,61.1
2017-06-01T01:00:06.355Z,61.6
2017-06-01T01:10:04.267Z,61.6
2017-06-01T01:20:06.361Z,61.6
2017-06-01T01:30:06.360Z,60.5
2017-06-01T01:40:06.347Z,61.6
2017-06-01T01:50:06.367Z,60.5
2017-06-01T02:00:06.389Z,60.5
2017-06-01T02:10:06.357Z,60.5
2017-06-01T02:20:06.355Z,61.1
2017-06-01T02:30:06.393Z,60.5
2017-06-01T02:40:06.363Z,60.5
2017-06-01T02:50:06.358Z,60
2017-06-01T03:00:06.358Z,60
2017-06-01T03:10:06.390Z,60.5
2017-06-01T03:20:06.389Z,60
2017-06-01T03:30:06.400Z,59.5
2017-06-01T03:40:06.358Z,59.5
2017-06-01T03:50:06.358Z,59.5
2017-06-01T04:00:06.357Z,59.5
2017-06-01T04:10:06.354Z,58.9
2017-06-01T04:20:06.404Z,58.4
2017-06-01T04:30:06.393Z,58.4
2017-06-01T04:40:06.389Z,58.4
2017-06-01T04:50:06.359Z,58.4
2017-06-01T05:00:06.357Z,58.4
2017-06-01T05:10:06.389Z,58.4
2017-06-01T05:20:06.356Z,58.4
2017-06-01T05:30:06.358Z,58.4
2017-06-01T05:40:06.357Z,58.4
2017-06-01T05:50:06.361Z,58.9
2017-06-01T06:00:06.359Z,58.4
2017-06-01T06:10:06.360Z,59.5
2017-06-01T06:20:06.388Z,58.4
2017-06-01T06:30:06.358Z,59.5
2017-06-01T06:40:06.391Z,59.5
2017-06-01T06:50:06.359Z,59.5
2017-06-01T07:00:06.389Z,59.5
2017-06-01T07:10:06.359Z,60
2017-06-01T07:20:06.359Z,59.5
2017-06-01T07:30:06.364Z,59.5
2017-06-01T07:40:06.357Z,59.5
2017-06-01T07:50:06.404Z,60
2017-06-01T08:00:06.389Z,60
2017-06-01T08:10:06.359Z,60
2017-06-01T08:20:06.359Z,60
2017-06-01T08:30:06.359Z,61.1
2017-06-01T08:40:06.353Z,61.1
2017-06-01T08:50:06.356Z,61.6
2017-06-01T09:00:06.357Z,61.6
2017-06-01T09:10:06.356Z,61.6
2017-06-01T09:20:06.359Z,61.6
2017-06-01T09:30:06.359Z,61.6
2017-06-01T09:40:06.396Z,62.1
2017-06-01T09:50:05.556Z,62.7
2017-06-01T10:00:06.358Z,62.7
2017-06-01T10:10:06.359Z,62.7
2017-06-01T10:20:06.357Z,63.2
2017-06-01T10:30:06.388Z,63.8
2017-06-01T10:40:06.365Z,62.7
2017-06-01T10:50:06.362Z,62.7
2017-06-01T11:00:06.385Z,63.8
2017-06-01T11:10:06.357Z,63.8
2017-06-01T11:20:06.365Z,63.8
2017-06-01T11:30:06.362Z,64.3
2017-06-01T11:40:06.390Z,63.8
2017-06-01T11:50:06.354Z,64.3
2017-06-01T12:00:06.390Z,64.3
2017-06-01T12:10:06.356Z,64.3
2017-06-01T12:20:06.357Z,64.3
2017-06-01T12:30:00.520Z,64.8
2017-06-01T12:40:19.292Z,64.3
2017-06-01T12:50:16.357Z,64.8
2017-06-01T13:00:16.358Z,64.8
2017-06-01T13:10:16.391Z,64.8
2017-06-01T13:20:16.358Z,64.3
2017-06-01T13:30:16.390Z,64.3
2017-06-01T13:40:16.382Z,64.8
2017-06-01T13:50:06.390Z,64.8
2017-06-01T14:00:06.357Z,64.8
2017-06-01T14:10:06.353Z,65.4
2017-06-01T14:20:06.388Z,65.4
2017-06-01T14:30:06.391Z,64.8
2017-06-01T14:40:06.360Z,65.4
2017-06-01T14:50:06.362Z,64.8
2017-06-01T15:00:06.356Z,64.8
2017-06-01T15:10:06.363Z,64.8
2017-06-01T15:20:06.355Z,65.9
2017-06-01T15:30:06.396Z,65.4
2017-06-01T15:40:06.357Z,65.9
2017-06-01T15:50:06.394Z,65.9
2017-06-01T16:00:00.676Z,65.4
2017-06-01T16:10:25.028Z,65.4
2017-06-01T16:20:16.391Z,65.4
2017-06-01T16:30:11.391Z,65.4
2017-06-01T16:40:16.558Z,65.4
2017-06-01T16:50:11.047Z,65.9
2017-06-01T17:00:06.356Z,65.4
2017-06-01T17:10:06.360Z,65.9
2017-06-01T17:20:05.879Z,65.9
2017-06-01T17:30:06.356Z,65.9
2017-06-01T17:40:06.394Z,65.9
2017-06-01T17:50:06.415Z,65.9
2017-06-01T18:00:06.360Z,65.9
2017-06-01T18:10:06.364Z,65.9
2017-06-01T18:20:06.366Z,65.9
2017-06-01T18:30:06.358Z,65.9
2017-06-01T18:40:06.360Z,65.9
2017-06-01T18:50:06.653Z,65.9
2017-06-01T19:00:06.356Z,65.9
2017-06-01T19:10:06.364Z,65.9
2017-06-01T19:20:06.363Z,65.9
2017-06-01T19:30:06.364Z,65.9
2017-06-01T19:40:06.361Z,65.9
2017-06-01T19:50:06.361Z,65.9
2017-06-01T20:00:06.363Z,65.4
2017-06-01T20:10:06.358Z,65.9
2017-06-01T20:20:06.360Z,65.4
2017-06-01T20:30:06.365Z,65.4
2017-06-01T20:40:06.361Z,65.4
2017-06-01T20:50:06.356Z,65.4
2017-06-01T21:00:06.393Z,65.4
2017-06-01T21:10:06.371Z,64.8
2017-06-01T21:20:06.409Z,65.4
2017-06-01T21:30:06.392Z,64.8
2017-06-01T21:40:06.358Z,64.8
2017-06-01T21:50:05.074Z,64.3
2017-06-01T22:00:06.391Z,64.8
2017-06-01T22:10:33.430Z,64.8
2017-06-01T22:20:16.392Z,64.8
2017-06-01T22:30:16.385Z,64.8
2017-06-01T22:40:16.358Z,64.8
2017-06-01T22:50:06.391Z,64.8
2017-06-01T23:00:06.359Z,64.8
2017-06-01T23:10:06.360Z,64.8
2017-06-01T23:20:06.369Z,64.3
2017-06-01T23:30:06.358Z,64.3
2017-06-01T23:40:06.359Z,63.8
2017-06-01T23:50:06.389Z,64.3
